Time;durP1;ratioP1;P1;durP2;ratioP2;P2;SDS_P1;SDS_P2;PMS_P1;PMS_P2;Temp;Humidity;BMP_temperature;BMP_pressure;BME280_temperature;BME280_humidity;BME280_pressure;Samples;Min_cycle;Max_cycle;Signal;HPM_P1;HPM_P2
2021/03/11 00:00:24;;;;;;;63.60;29.27;;;;;;;4.37;90.26;100581.56;5020979;28;20535;-78
2021/03/11 00:02:49;;;;;;;61.83;29.85;;;;;;;4.36;90.96;100578.13;5037907;28;20100;-78
2021/03/11 00:05:16;;;;;;;57.40;28.83;;;;;;;4.34;91.09;100574.81;5043915;28;20076;-79
2021/03/11 00:07:41;;;;;;;59.67;29.52;;;;;;;4.29;91.14;100576.91;5054944;28;20045;-77
2021/03/11 00:10:12;;;;;;;63.20;28.92;;;;;;;4.32;91.39;100558.53;5040604;28;20045;-79
2021/03/11 00:12:39;;;;;;;59.83;29.52;;;;;;;4.28;91.54;100564.88;5027136;28;20061;-77
2021/03/11 00:15:08;;;;;;;64.78;32.33;;;;;;;4.21;91.74;100546.31;5050421;28;20041;-76
2021/03/11 00:17:33;;;;;;;70.35;32.30;;;;;;;4.17;91.68;100533.66;5028123;28;20056;-77
2021/03/11 00:19:59;;;;;;;68.43;32.13;;;;;;;4.19;92.06;100530.00;5050094;28;20053;-77
2021/03/11 00:22:24;;;;;;;71.93;31.33;;;;;;;4.14;92.42;100523.50;5057801;28;20048;-79
2021/03/11 00:24:50;;;;;;;70.95;32.33;;;;;;;4.14;93.10;100523.50;5032697;28;20059;-78
2021/03/11 00:27:16;;;;;;;74.55;32.35;;;;;;;4.12;92.72;100517.59;5029532;28;20080;-78
2021/03/11 00:29:41;;;;;;;67.20;32.60;;;;;;;4.12;92.96;100499.41;5048858;28;20135;-78
2021/03/11 00:32:07;;;;;;;70.40;33.50;;;;;;;4.06;93.22;100498.91;5020532;28;20049;-77
2021/03/11 00:34:32;;;;;;;71.60;33.97;;;;;;;4.10;93.96;100497.75;5019027;28;20057;-78
2021/03/11 00:36:58;;;;;;;74.60;34.30;;;;;;;4.05;93.70;100494.69;5042157;28;20036;-78
2021/03/11 00:39:23;;;;;;;76.28;33.70;;;;;;;4.10;94.14;100494.31;5036626;28;20051;-78
2021/03/11 00:41:49;;;;;;;75.13;34.05;;;;;;;4.08;93.64;100491.84;5036975;28;20045;-78
2021/03/11 00:44:15;;;;;;;79.80;34.28;;;;;;;4.10;93.52;100482.16;5045363;28;20515;-77
2021/03/11 00:46:41;;;;;;;71.22;33.80;;;;;;;4.13;93.44;100469.94;5053745;28;20049;-75
2021/03/11 00:49:07;;;;;;;69.28;34.03;;;;;;;4.17;94.00;100473.97;5038409;28;20049;-77
2021/03/11 00:51:33;;;;;;;72.38;34.22;;;;;;;4.10;93.64;100453.63;5050698;28;20634;-77
2021/03/11 00:53:59;;;;;;;74.38;33.83;;;;;;;4.11;93.63;100441.50;5006361;28;20049;-76
2021/03/11 00:56:25;;;;;;;72.32;34.20;;;;;;;4.12;93.44;100445.72;5034909;28;20065;-77
2021/03/11 00:58:51;;;;;;;76.50;35.03;;;;;;;4.15;93.81;100442.91;5048810;28;20048;-78
2021/03/11 01:01:17;;;;;;;75.63;34.38;;;;;;;4.17;94.13;100441.03;5033172;28;20086;-80
2021/03/11 01:03:50;;;;;;;76.25;35.72;;;;;;;4.16;94.01;100428.97;5040450;28;20045;-78
2021/03/11 01:06:16;;;;;;;68.78;32.65;;;;;;;4.13;93.93;100423.22;5056161;28;20049;-77
2021/03/11 01:08:42;;;;;;;70.93;34.05;;;;;;;4.12;93.36;100417.16;5037367;28;20064;-74
2021/03/11 01:11:08;;;;;;;63.80;30.85;;;;;;;4.19;93.21;100413.19;5049714;28;20049;-79
2021/03/11 01:13:34;;;;;;;63.63;31.45;;;;;;;4.15;93.77;100396.19;5047380;28;20045;-79
2021/03/11 01:15:59;;;;;;;60.15;29.90;;;;;;;4.17;93.20;100393.50;5021364;28;20056;-76
2021/03/11 01:18:26;;;;;;;66.15;31.02;;;;;;;4.12;93.00;100385.19;5038335;28;20156;-77
2021/03/11 01:20:52;;;;;;;68.88;31.08;;;;;;;4.09;93.28;100373.28;5049241;28;20059;-78
2021/03/11 01:23:17;;;;;;;64.75;30.42;;;;;;;4.08;93.75;100351.69;5049518;28;20477;-78
2021/03/11 01:25:43;;;;;;;61.72;31.25;;;;;;;4.09;93.54;100353.34;5055870;28;20041;-78
2021/03/11 01:28:09;;;;;;;59.03;30.25;;;;;;;4.05;94.20;100341.53;5019279;28;20045;-75
2021/03/11 01:30:35;;;;;;;61.00;30.98;;;;;;;4.12;93.55;100336.69;5035029;28;20157;-77
2021/03/11 01:33:00;;;;;;;60.17;30.38;;;;;;;4.01;94.08;100319.34;5013000;28;20128;-78
2021/03/11 01:35:27;;;;;;;56.83;29.35;;;;;;;4.00;94.10;100312.50;5055943;28;20059;-78
2021/03/11 01:37:52;;;;;;;51.28;26.65;;;;;;;4.00;93.79;100296.94;5038509;28;20047;-78
2021/03/11 01:40:18;;;;;;;54.30;26.50;;;;;;;4.01;93.08;100298.59;5023431;28;20038;-79
2021/03/11 01:42:44;;;;;;;55.97;27.08;;;;;;;3.98;93.17;100287.63;5041897;28;20041;-77
2021/03/11 01:45:10;;;;;;;50.90;26.50;;;;;;;3.99;93.38;100287.47;5050480;28;20046;-79
2021/03/11 01:47:36;;;;;;;53.55;26.83;;;;;;;4.00;93.20;100283.13;5049661;28;20049;-78
2021/03/11 01:50:03;;;;;;;48.85;25.73;;;;;;;3.97;93.17;100281.56;5055454;28;20056;-79
2021/03/11 01:52:29;;;;;;;52.85;27.05;;;;;;;3.95;93.41;100280.06;5054896;28;20041;-78
2021/03/11 01:54:55;;;;;;;52.75;27.23;;;;;;;3.90;93.67;100273.44;5057716;28;20048;-77
2021/03/11 01:57:21;;;;;;;55.65;27.27;;;;;;;3.93;93.92;100277.56;5073793;28;20052;-78
2021/03/11 01:59:51;;;;;;;46.60;24.30;;;;;;;3.93;93.46;100277.56;5050161;28;20068;-78
2021/03/11 02:02:17;;;;;;;48.78;25.48;;;;;;;3.96;93.46;100282.53;5058303;28;20075;-78
2021/03/11 02:04:43;;;;;;;45.65;24.38;;;;;;;3.86;93.70;100258.19;5022270;28;20045;-78
2021/03/11 02:07:09;;;;;;;46.72;24.27;;;;;;;3.89;94.07;100251.00;5051444;28;20128;-78
2021/03/11 02:09:34;;;;;;;50.25;24.75;;;;;;;3.88;94.19;100232.97;5040481;28;20063;-79
2021/03/11 02:12:31;;;;;;;48.08;24.08;;;;;;;3.85;93.80;100231.44;5054824;28;20049;-78
2021/03/11 02:15:26;;;;;;;43.63;23.23;;;;;;;3.86;93.98;100225.31;5051378;28;20052;-79
2021/03/11 02:17:56;;;;;;;43.83;23.83;;;;;;;3.83;94.02;100209.97;5027588;28;20041;-80
2021/03/11 02:20:40;;;;;;;43.50;23.30;;;;;;;3.84;93.93;100215.97;5051890;28;20095;-79
2021/03/11 02:23:26;;;;;;;45.08;23.98;;;;;;;3.83;94.16;100206.56;5021379;28;20056;-78
2021/03/11 02:26:17;;;;;;;45.20;23.67;;;;;;;3.78;94.17;100183.53;5046217;28;20037;-78
2021/03/11 02:28:56;;;;;;;54.92;25.75;;;;;;;3.76;95.12;100169.88;5065438;28;20494;-77
2021/03/11 02:31:23;;;;;;;51.45;25.15;;;;;;;3.73;95.56;100144.19;5047710;28;20127;-77
2021/03/11 02:33:52;;;;;;;53.53;27.30;;;;;;;3.69;95.33;100140.16;5041294;28;20064;-79
2021/03/11 02:36:19;;;;;;;57.25;28.02;;;;;;;3.66;95.73;100141.22;5046059;28;20064;-79
2021/03/11 02:38:46;;;;;;;62.55;29.27;;;;;;;3.62;96.19;100126.84;5039216;28;20033;-78
2021/03/11 02:41:14;;;;;;;58.53;28.13;;;;;;;3.62;96.22;100115.63;5047485;28;20084;-78
2021/03/11 02:43:40;;;;;;;58.10;28.25;;;;;;;3.60;96.49;100104.53;5017907;28;20041;-77
2021/03/11 02:46:06;;;;;;;62.75;28.92;;;;;;;3.65;96.55;100098.06;5051805;28;20117;-79
2021/03/11 02:48:33;;;;;;;59.97;27.58;;;;;;;3.65;96.63;100097.22;5054170;28;20033;-77
2021/03/11 02:51:00;;;;;;;61.42;28.65;;;;;;;3.67;96.37;100088.41;5032879;28;20495;-77
2021/03/11 02:53:26;;;;;;;61.78;29.27;;;;;;;3.72;96.52;100082.03;5023678;28;20510;-78
2021/03/11 02:55:53;;;;;;;59.90;28.67;;;;;;;3.68;96.52;100076.25;5057503;28;20064;-75
2021/03/11 02:58:19;;;;;;;65.13;29.77;;;;;;;3.62;96.70;100066.38;5038398;28;20525;-77
2021/03/11 03:00:47;;;;;;;62.85;30.17;;;;;;;3.70;96.82;100062.22;5056167;28;20049;-79
2021/03/11 03:03:14;;;;;;;62.78;30.15;;;;;;;3.73;96.78;100050.78;5052904;28;20490;-78
2021/03/11 03:05:40;;;;;;;62.72;30.02;;;;;;;3.74;96.77;100046.44;5036787;28;20028;-79
2021/03/11 03:08:08;;;;;;;63.35;29.75;;;;;;;3.74;97.13;100031.69;5019912;28;20049;-78
2021/03/11 03:10:36;;;;;;;61.78;29.23;;;;;;;3.80;97.22;100028.59;5041704;28;20068;-77
2021/03/11 03:13:10;;;;;;;60.35;28.23;;;;;;;3.78;97.16;100001.13;5038262;28;20076;-77
2021/03/11 03:15:36;;;;;;;60.65;28.77;;;;;;;3.84;96.91;100005.84;5037057;28;20056;-76
2021/03/11 03:18:04;;;;;;;56.75;26.85;;;;;;;3.81;96.81;100001.72;5059585;28;20041;-78
2021/03/11 03:20:30;;;;;;;56.67;27.25;;;;;;;3.80;97.05;100001.84;5060434;28;20053;-79
2021/03/11 03:22:59;;;;;;;55.20;27.55;;;;;;;3.84;97.05;99990.25;5027525;28;20071;-76
2021/03/11 03:25:25;;;;;;;52.25;25.83;;;;;;;3.83;97.30;99989.44;5055214;28;20131;-79
2021/03/11 03:27:50;;;;;;;52.47;26.52;;;;;;;3.86;97.37;99976.25;5038623;28;20404;-78
2021/03/11 03:30:18;;;;;;;56.83;26.10;;;;;;;3.85;97.20;99969.41;5040284;28;20047;-79
2021/03/11 03:32:44;;;;;;;48.28;23.25;;;;;;;3.89;96.83;99957.00;5026118;28;20137;-79
2021/03/11 03:35:11;;;;;;;46.33;23.75;;;;;;;3.96;97.12;99952.16;5016540;28;20120;-77
2021/03/11 03:37:37;;;;;;;43.78;22.63;;;;;;;3.98;96.81;99953.69;5074774;28;20044;-77
2021/03/11 03:40:07;;;;;;;50.15;24.42;;;;;;;3.92;96.89;99937.75;5056762;28;20045;-78
2021/03/11 03:42:39;;;;;;;50.63;23.35;;;;;;;3.99;97.10;99931.13;5036845;28;20045;-76
2021/03/11 03:45:07;;;;;;;45.05;23.30;;;;;;;3.95;97.06;99927.97;5038229;28;20049;-76
2021/03/11 03:47:32;;;;;;;46.70;23.90;;;;;;;3.98;96.92;99924.31;5044582;28;20061;-78
2021/03/11 03:49:58;;;;;;;46.47;25.02;;;;;;;3.97;96.73;99918.28;5045645;28;20037;-78
2021/03/11 03:52:26;;;;;;;47.20;24.33;;;;;;;3.99;97.39;99912.97;5040572;28;20036;-79
2021/03/11 03:54:53;;;;;;;46.83;23.67;;;;;;;3.99;96.88;99916.38;5042054;28;20505;-78
2021/03/11 03:57:21;;;;;;;49.50;24.17;;;;;;;4.06;97.07;99908.94;5056472;28;20048;-78
2021/03/11 03:59:50;;;;;;;44.17;23.48;;;;;;;4.07;97.22;99918.38;5040271;28;20064;-77
2021/03/11 04:02:17;;;;;;;44.30;23.48;;;;;;;4.08;97.01;99913.03;5043518;28;20045;-78
2021/03/11 04:04:44;;;;;;;42.75;23.50;;;;;;;4.06;96.63;99912.34;5041116;28;20119;-77
2021/03/11 04:07:13;;;;;;;43.92;22.15;;;;;;;4.10;97.13;99907.75;5039514;28;20041;-78
2021/03/11 04:09:39;;;;;;;44.53;23.45;;;;;;;4.13;96.94;99907.50;5041986;28;20122;-79
2021/03/11 04:12:07;;;;;;;42.05;22.80;;;;;;;4.12;97.20;99903.25;5050802;28;20056;-79
2021/03/11 04:14:33;;;;;;;40.83;22.27;;;;;;;4.12;97.06;99892.03;5041696;28;20056;-78
2021/03/11 04:17:00;;;;;;;43.88;22.77;;;;;;;4.15;96.62;99892.63;5059991;28;20041;-78
2021/03/11 04:19:26;;;;;;;42.85;22.55;;;;;;;4.14;96.67;99880.56;5040475;28;20044;-78
2021/03/11 04:21:53;;;;;;;46.00;23.27;;;;;;;4.14;96.65;99879.75;5040146;28;20036;-77
2021/03/11 04:24:19;;;;;;;43.67;23.83;;;;;;;4.14;96.67;99870.19;5059217;28;20041;-79
2021/03/11 04:26:46;;;;;;;42.63;22.15;;;;;;;4.18;96.90;99862.97;5058215;28;20649;-77
2021/03/11 04:29:13;;;;;;;42.15;23.52;;;;;;;4.15;96.64;99864.06;5053064;28;20063;-80
2021/03/11 04:31:39;;;;;;;42.15;22.73;;;;;;;4.16;96.91;99849.31;5034851;28;20045;-80
2021/03/11 04:34:06;;;;;;;41.83;22.77;;;;;;;4.13;96.93;99844.41;5037781;28;20459;-78
2021/03/11 04:36:33;;;;;;;45.65;24.00;;;;;;;4.17;96.80;99838.81;5052362;28;20044;-77
2021/03/11 04:38:59;;;;;;;43.50;23.23;;;;;;;4.22;96.68;99833.22;5045064;28;20063;-78
2021/03/11 04:41:25;;;;;;;42.00;23.08;;;;;;;4.13;96.97;99829.63;5037610;28;20049;-78
2021/03/11 04:43:52;;;;;;;44.05;22.88;;;;;;;4.16;97.08;99818.16;5031361;28;20529;-78
2021/03/11 04:46:20;;;;;;;44.38;22.08;;;;;;;4.17;96.87;99820.63;5038177;28;20058;-77
2021/03/11 04:48:46;;;;;;;38.75;21.52;;;;;;;4.23;96.65;99820.13;5036915;28;20049;-78
2021/03/11 04:51:13;;;;;;;41.40;22.55;;;;;;;4.22;96.69;99815.03;5048146;28;20053;-79
2021/03/11 04:53:39;;;;;;;39.67;21.30;;;;;;;4.20;96.85;99809.16;5056882;28;20056;-77
2021/03/11 04:56:09;;;;;;;43.40;22.33;;;;;;;4.21;97.17;99810.81;5041875;28;20051;-77
2021/03/11 04:58:39;;;;;;;42.22;22.70;;;;;;;4.18;97.09;99806.72;5056195;28;20041;-78
2021/03/11 05:01:13;;;;;;;38.63;21.23;;;;;;;4.23;96.87;99799.34;5036719;28;20140;-78
2021/03/11 05:03:46;;;;;;;37.20;21.02;;;;;;;4.23;96.78;99790.75;5038609;28;20045;-77
2021/03/11 05:06:15;;;;;;;40.92;21.70;;;;;;;4.22;97.16;99791.69;5034528;28;20037;-78
2021/03/11 05:08:41;;;;;;;38.88;20.95;;;;;;;4.25;96.94;99786.25;5058618;28;20037;-78
2021/03/11 05:11:08;;;;;;;39.08;20.65;;;;;;;4.25;97.52;99779.28;5038563;28;20255;-78
2021/03/11 05:13:33;;;;;;;37.60;21.23;;;;;;;4.26;96.87;99769.75;5037975;28;20037;-77
2021/03/11 05:16:00;;;;;;;36.42;20.52;;;;;;;4.23;97.20;99770.78;5056187;28;20060;-78
2021/03/11 05:18:27;;;;;;;37.75;20.52;;;;;;;4.29;96.94;99767.72;5056196;28;20435;-76
2021/03/11 05:20:53;;;;;;;42.83;22.20;;;;;;;4.26;97.00;99769.75;5029660;28;20045;-79
2021/03/11 05:23:19;;;;;;;37.65;21.25;;;;;;;4.28;97.05;99760.03;5038106;28;20067;-78
2021/03/11 05:25:45;;;;;;;36.78;20.42;;;;;;;4.26;97.46;99752.38;5021322;28;20105;-77
2021/03/11 05:28:10;;;;;;;39.47;20.55;;;;;;;4.25;97.47;99742.13;5014383;28;20045;-77
2021/03/11 05:30:36;;;;;;;38.33;20.90;;;;;;;4.32;97.56;99745.84;5033485;28;20041;-78
2021/03/11 05:33:02;;;;;;;39.50;20.55;;;;;;;4.33;97.01;99737.09;5036482;28;20128;-77
2021/03/11 05:35:27;;;;;;;39.05;20.48;;;;;;;4.34;97.52;99738.75;5031954;28;20060;-78
2021/03/11 05:37:53;;;;;;;36.38;19.92;;;;;;;4.32;97.67;99721.66;5057895;28;20045;-77
2021/03/11 05:40:21;;;;;;;41.15;20.35;;;;;;;4.25;97.80;99722.16;5038434;28;20397;-76
2021/03/11 05:42:48;;;;;;;39.10;21.13;;;;;;;4.26;97.54;99723.00;5066906;28;20041;-76
2021/03/11 05:45:14;;;;;;;38.90;20.55;;;;;;;4.28;97.92;99719.31;5024131;28;20124;-78
2021/03/11 05:47:43;;;;;;;37.42;20.80;;;;;;;4.29;97.60;99722.72;5023927;28;20057;-78
2021/03/11 05:50:10;;;;;;;35.53;20.40;;;;;;;4.35;97.96;99711.00;5043478;28;20042;-78
2021/03/11 05:52:36;;;;;;;38.53;21.60;;;;;;;4.36;97.90;99710.88;5035629;28;20119;-76
2021/03/11 05:55:04;;;;;;;39.72;21.17;;;;;;;4.35;98.11;99709.25;5007794;28;20052;-78
2021/03/11 05:57:30;;;;;;;35.40;19.77;;;;;;;4.36;97.49;99700.50;5030286;28;20056;-77
2021/03/11 05:59:56;;;;;;;37.33;21.08;;;;;;;4.36;97.87;99708.28;5058599;28;20049;-75
2021/03/11 06:02:23;;;;;;;35.67;20.88;;;;;;;4.37;97.72;99715.13;5058004;28;20041;-78
2021/03/11 06:04:53;;;;;;;36.95;20.33;;;;;;;4.38;98.09;99710.75;5058423;28;20052;-77
2021/03/11 06:07:22;;;;;;;38.15;20.85;;;;;;;4.41;97.95;99690.53;5054516;28;20048;-75
2021/03/11 06:09:53;;;;;;;40.47;22.30;;;;;;;4.38;97.58;99671.78;5056141;28;20049;-78
2021/03/11 06:12:20;;;;;;;37.22;21.05;;;;;;;4.38;97.96;99667.41;5035545;28;20124;-78
2021/03/11 06:14:50;;;;;;;36.72;20.48;;;;;;;4.40;97.97;99656.91;5025862;28;20046;-78
2021/03/11 06:17:17;;;;;;;32.95;19.17;;;;;;;4.41;98.34;99645.59;5032082;28;20067;-79
2021/03/11 06:19:43;;;;;;;38.15;22.27;;;;;;;4.38;97.96;99640.63;5036037;28;20047;-77
2021/03/11 06:22:09;;;;;;;36.90;20.23;;;;;;;4.42;98.71;99639.41;5055052;28;20040;-76
2021/03/11 06:24:43;;;;;;;36.15;21.20;;;;;;;4.46;98.44;99643.38;5056123;28;20044;-78
2021/03/11 06:27:09;;;;;;;35.33;19.65;;;;;;;4.47;98.54;99638.06;5072344;28;20175;-76
2021/03/11 06:29:39;;;;;;;39.03;19.85;;;;;;;4.46;98.33;99612.22;5038270;28;20143;-78
2021/03/11 06:32:06;;;;;;;36.08;20.52;;;;;;;4.49;98.49;99611.97;5054851;28;20048;-77
2021/03/11 06:34:44;;;;;;;33.15;19.50;;;;;;;4.56;98.10;99620.88;5058989;28;20052;-79
2021/03/11 06:37:11;;;;;;;31.85;17.88;;;;;;;4.56;98.10;99614.81;5034446;28;20049;-78
2021/03/11 06:39:40;;;;;;;34.65;18.70;;;;;;;4.55;98.38;99608.81;5037905;28;20052;-78
2021/03/11 06:42:07;;;;;;;32.72;17.88;;;;;;;4.55;98.16;99611.41;5050688;28;20068;-78
2021/03/11 06:44:39;;;;;;;31.55;18.67;;;;;;;4.58;98.86;99605.16;5057211;28;20040;-78
2021/03/11 06:47:10;;;;;;;32.70;18.83;;;;;;;4.62;98.30;99583.13;5040471;28;20510;-77
2021/03/11 06:49:54;;;;;;;29.80;17.13;;;;;;;4.65;98.35;99567.25;5057893;28;20550;-78
2021/03/11 06:52:19;;;;;;;30.90;17.52;;;;;;;4.62;98.47;99570.16;5026625;28;20080;-78
2021/03/11 06:54:57;;;;;;;32.20;17.33;;;;;;;4.67;98.72;99584.38;5042044;28;20042;-78
2021/03/11 06:57:27;;;;;;;29.15;17.92;;;;;;;4.66;98.47;99572.31;5051466;28;20041;-75
2021/03/11 06:59:53;;;;;;;30.08;16.33;;;;;;;4.68;98.52;99570.41;5058037;28;20049;-78
2021/03/11 07:02:22;;;;;;;28.02;16.65;;;;;;;4.72;98.65;99563.16;5036953;28;20061;-78
2021/03/11 07:04:48;;;;;;;30.88;16.23;;;;;;;4.77;98.45;99545.41;5021488;28;20057;-78
2021/03/11 07:07:22;;;;;;;28.38;16.02;;;;;;;4.80;98.64;99557.28;5037329;28;20099;-75
2021/03/11 07:09:49;;;;;;;25.63;15.25;;;;;;;4.87;97.98;99548.78;5053151;28;20865;-76
2021/03/11 07:12:15;;;;;;;26.38;15.38;;;;;;;4.89;97.80;99538.25;5028327;28;20397;-77
2021/03/11 07:14:41;;;;;;;25.45;14.85;;;;;;;4.92;97.95;99539.78;5033447;28;20045;-78
2021/03/11 07:17:19;;;;;;;22.27;14.23;;;;;;;4.92;97.53;99527.59;5059213;28;20136;-77
2021/03/11 07:20:08;;;;;;;21.73;14.40;;;;;;;5.03;97.64;99535.22;5033276;28;20793;-77
2021/03/11 07:22:34;;;;;;;21.45;13.68;;;;;;;5.01;97.69;99520.72;5052289;28;20040;-78
2021/03/11 07:25:00;;;;;;;25.23;14.93;;;;;;;5.09;97.44;99518.25;5039467;28;20045;-77
2021/03/11 07:27:38;;;;;;;22.50;13.80;;;;;;;5.18;96.94;99517.41;5040798;28;20045;-79
2021/03/11 07:30:05;;;;;;;24.77;13.95;;;;;;;5.22;97.26;99512.75;5046588;28;20045;-78
2021/03/11 07:32:33;;;;;;;20.30;13.05;;;;;;;5.35;96.72;99513.25;5054416;28;20071;-77
2021/03/11 07:34:59;;;;;;;21.65;13.18;;;;;;;5.44;96.57;99517.59;5044947;28;20045;-78
2021/03/11 07:37:26;;;;;;;21.48;13.07;;;;;;;5.52;96.40;99519.47;5060520;28;20059;-79
2021/03/11 07:39:56;;;;;;;21.58;13.65;;;;;;;5.49;96.69;99506.75;5059252;28;20056;-79
2021/03/11 07:42:22;;;;;;;21.80;13.75;;;;;;;5.54;96.41;99504.53;5051047;28;20087;-77
2021/03/11 07:44:48;;;;;;;21.58;13.32;;;;;;;5.58;96.66;99505.06;5059866;28;20057;-77
2021/03/11 07:47:14;;;;;;;21.58;13.10;;;;;;;5.57;96.81;99491.22;5041923;28;20045;-76
2021/03/11 07:49:42;;;;;;;21.15;12.80;;;;;;;5.62;96.67;99494.22;5057463;28;20059;-78
2021/03/11 07:52:08;;;;;;;24.75;13.88;;;;;;;5.64;96.95;99473.28;5059457;28;20045;-78
2021/03/11 07:54:34;;;;;;;23.10;13.70;;;;;;;5.70;96.77;99475.28;5058406;28;20048;-78
2021/03/11 07:57:00;;;;;;;24.02;13.45;;;;;;;5.68;96.40;99464.19;5057435;28;20037;-77
2021/03/11 07:59:25;;;;;;;23.90;14.18;;;;;;;5.70;96.67;99464.06;5041445;28;20414;-77
2021/03/11 08:01:55;;;;;;;24.35;14.45;;;;;;;5.72;96.80;99462.13;5058855;28;20107;-77
2021/03/11 08:04:27;;;;;;;25.52;15.15;;;;;;;5.71;97.44;99456.13;5040235;28;20037;-80
2021/03/11 08:07:16;;;;;;;24.30;14.75;;;;;;;5.72;97.54;99447.34;5059264;28;20055;-77
2021/03/11 08:09:43;;;;;;;26.63;15.15;;;;;;;5.75;97.74;99443.63;5047318;28;20056;-78
2021/03/11 08:12:24;;;;;;;26.98;15.02;;;;;;;5.73;97.47;99443.78;5041566;28;20057;-79
2021/03/11 08:14:50;;;;;;;26.98;15.43;;;;;;;5.74;97.86;99442.78;5040444;28;20049;-77
2021/03/11 08:17:33;;;;;;;27.10;15.73;;;;;;;5.80;97.80;99434.41;5041455;28;20041;-80
2021/03/11 08:19:59;;;;;;;25.73;15.07;;;;;;;5.91;97.74;99422.16;5056661;28;20041;-79
2021/03/11 08:22:50;;;;;;;29.58;15.68;;;;;;;5.94;97.36;99422.66;5058691;28;20114;-77
2021/03/11 08:25:36;;;;;;;29.15;14.70;;;;;;;6.00;97.59;99432.50;5044408;28;20041;-78
2021/03/11 08:28:08;;;;;;;28.80;14.95;;;;;;;6.03;97.59;99427.03;5040799;28;20049;-76
2021/03/11 08:30:43;;;;;;;24.77;15.52;;;;;;;6.10;97.35;99419.41;5058715;28;20041;-79
2021/03/11 08:33:13;;;;;;;28.67;14.68;;;;;;;6.15;96.94;99411.16;5059296;28;20053;-78
2021/03/11 08:35:46;;;;;;;24.98;14.48;;;;;;;6.20;96.58;99419.34;5025054;28;20094;-76
2021/03/11 08:38:34;;;;;;;24.15;15.30;;;;;;;6.24;96.63;99397.25;5058525;28;20155;-78
2021/03/11 08:41:06;;;;;;;22.08;13.75;;;;;;;6.26;96.29;99399.69;5041949;28;20042;-78
2021/03/11 08:43:34;;;;;;;22.13;13.80;;;;;;;6.33;95.95;99382.47;5057574;28;20045;-78
2021/03/11 08:46:01;;;;;;;24.90;13.05;;;;;;;6.38;96.00;99377.63;5041883;28;20053;-78
2021/03/11 08:48:39;;;;;;;27.08;13.88;;;;;;;6.39;96.38;99368.88;5025957;28;20240;-78
2021/03/11 08:51:06;;;;;;;22.77;13.15;;;;;;;6.36;96.55;99369.97;5055638;28;20037;-78
2021/03/11 08:53:37;;;;;;;23.75;14.18;;;;;;;6.47;96.39;99360.28;5041923;28;20045;-77
2021/03/11 08:56:18;;;;;;;24.17;13.70;;;;;;;6.58;95.92;99355.63;5043482;28;20531;-77
2021/03/11 08:59:03;;;;;;;19.88;12.95;;;;;;;6.62;96.30;99356.94;5036393;28;20053;-79
2021/03/11 09:01:44;;;;;;;17.98;11.90;;;;;;;6.61;95.68;99346.66;5060885;28;20044;-79
2021/03/11 09:04:21;;;;;;;17.77;11.02;;;;;;;6.77;95.31;99345.94;5068612;28;20060;-78
2021/03/11 09:07:07;;;;;;;21.30;12.45;;;;;;;6.95;95.55;99340.63;5046523;28;20041;-78
2021/03/11 09:09:48;;;;;;;18.45;10.88;;;;;;;7.06;94.21;99335.13;5022676;28;20046;-77
2021/03/11 09:12:17;;;;;;;17.63;11.23;;;;;;;7.08;94.10;99330.56;5037734;28;20044;-77
2021/03/11 09:14:53;;;;;;;14.75;10.20;;;;;;;7.21;93.23;99330.13;5035821;28;20046;-77
2021/03/11 09:17:22;;;;;;;14.00;9.50;;;;;;;7.33;92.66;99331.47;5040022;28;20041;-79
2021/03/11 09:19:54;;;;;;;16.35;9.50;;;;;;;7.45;91.89;99321.53;5022256;28;20037;-78
2021/03/11 09:22:24;;;;;;;17.43;9.87;;;;;;;7.56;91.95;99316.00;5024309;28;20055;-77
2021/03/11 09:24:59;;;;;;;14.10;9.65;;;;;;;7.58;91.92;99308.03;5053838;28;20282;-77
2021/03/11 09:27:28;;;;;;;13.82;8.98;;;;;;;7.59;90.95;99305.25;5051839;28;20048;-76
2021/03/11 09:30:13;;;;;;;12.55;8.65;;;;;;;7.73;91.22;99306.41;5050511;28;20500;-77
2021/03/11 09:32:39;;;;;;;16.00;9.23;;;;;;;7.89;91.18;99312.59;5059860;28;20049;-78
2021/03/11 09:35:10;;;;;;;13.13;8.20;;;;;;;7.98;90.28;99301.16;5041650;28;20056;-76
2021/03/11 09:37:45;;;;;;;12.85;8.45;;;;;;;8.06;90.41;99301.16;5024282;28;20446;-76
2021/03/11 09:40:27;;;;;;;11.73;7.65;;;;;;;8.17;89.42;99297.38;5023825;28;20046;-76
2021/03/11 09:43:03;;;;;;;14.88;7.63;;;;;;;8.28;89.93;99285.75;5028386;28;20068;-78
2021/03/11 09:45:51;;;;;;;11.38;7.43;;;;;;;8.52;87.54;99275.28;5049600;28;20127;-77
2021/03/11 09:48:23;;;;;;;9.48;6.97;;;;;;;8.67;87.88;99254.47;5036337;28;20423;-77
2021/03/11 09:51:01;;;;;;;10.20;6.88;;;;;;;8.85;86.51;99240.31;5040584;28;20068;-76
2021/03/11 09:53:45;;;;;;;11.85;7.25;;;;;;;9.09;86.58;99240.16;5030571;28;20029;-77
2021/03/11 09:56:14;;;;;;;13.18;6.32;;;;;;;9.19;84.69;99237.31;5020683;28;20052;-76
2021/03/11 09:58:45;;;;;;;11.02;6.25;;;;;;;9.29;84.03;99231.88;5018984;28;20060;-77
2021/03/11 10:01:11;;;;;;;10.50;6.53;;;;;;;9.41;84.73;99217.38;5029101;28;20116;-76
2021/03/11 10:03:37;;;;;;;8.93;5.88;;;;;;;9.49;83.47;99206.03;5042519;28;20550;-74
2021/03/11 10:06:05;;;;;;;9.75;5.78;;;;;;;9.60;82.53;99208.22;5030053;28;20051;-76
2021/03/11 10:08:37;;;;;;;10.68;5.85;;;;;;;9.64;82.42;99216.53;5053112;28;20032;-78
2021/03/11 10:11:09;;;;;;;9.90;6.32;;;;;;;9.73;82.17;99213.66;5045205;28;20032;-76
2021/03/11 10:13:36;;;;;;;7.95;5.18;;;;;;;9.83;83.08;99207.34;5027126;28;20035;-75
2021/03/11 10:16:02;;;;;;;12.10;5.53;;;;;;;9.95;80.83;99208.53;5038230;28;20048;-76
2021/03/11 10:18:28;;;;;;;7.03;5.30;;;;;;;10.01;80.06;99199.97;5054583;28;20461;-77
2021/03/11 10:21:09;;;;;;;6.93;4.65;;;;;;;10.02;78.48;99196.34;5038657;28;20041;-75
2021/03/11 10:23:37;;;;;;;9.27;4.95;;;;;;;10.11;78.56;99176.09;5034475;28;20048;-78
2021/03/11 10:26:21;;;;;;;10.45;5.07;;;;;;;10.41;78.37;99165.63;5006110;28;20052;-76
2021/03/11 10:28:50;;;;;;;8.18;4.72;;;;;;;10.38;75.38;99152.88;5037725;28;20041;-76
2021/03/11 10:31:16;;;;;;;8.05;4.80;;;;;;;10.14;76.63;99155.59;5031840;28;20079;-76
2021/03/11 10:33:42;;;;;;;10.93;4.75;;;;;;;9.94;75.80;99155.34;5056955;28;20041;-77
2021/03/11 10:36:16;;;;;;;7.07;4.10;;;;;;;9.85;76.20;99148.59;5056190;28;20097;-75
2021/03/11 10:38:43;;;;;;;7.57;4.18;;;;;;;9.84;76.19;99159.22;5057829;28;20098;-76
2021/03/11 10:41:17;;;;;;;8.27;4.90;;;;;;;9.84;77.10;99152.19;5014941;28;20123;-78
2021/03/11 10:43:44;;;;;;;7.05;3.92;;;;;;;9.76;76.49;99126.09;5045642;28;20048;-77
2021/03/11 10:46:28;;;;;;;8.02;3.75;;;;;;;9.77;76.17;99129.53;5038086;28;20045;-78
2021/03/11 10:48:53;;;;;;;8.05;4.43;;;;;;;9.80;76.33;99132.59;5057801;28;20041;-78
2021/03/11 10:51:22;;;;;;;7.28;3.95;;;;;;;9.63;77.32;99131.94;5055374;28;20114;-77
2021/03/11 10:53:48;;;;;;;9.10;4.53;;;;;;;9.49;79.50;99130.13;5022578;28;20045;-78
2021/03/11 10:56:14;;;;;;;7.18;3.75;;;;;;;9.61;78.72;99127.91;5055779;28;20072;-78
2021/03/11 10:58:40;;;;;;;4.88;3.10;;;;;;;9.90;77.90;99129.69;5056225;28;20033;-77
2021/03/11 11:01:15;;;;;;;6.30;3.40;;;;;;;10.24;76.62;99104.72;5047155;28;20724;-75
2021/03/11 11:03:41;;;;;;;6.40;3.22;;;;;;;10.11;76.81;99121.94;5040922;28;20578;-75
2021/03/11 11:06:08;;;;;;;5.28;3.20;;;;;;;9.88;76.49;99114.16;5024885;28;20105;-76
2021/03/11 11:08:34;;;;;;;6.05;3.42;;;;;;;9.72;77.49;99112.56;5032029;28;20042;-74
2021/03/11 11:11:03;;;;;;;6.20;2.80;;;;;;;9.44;76.20;99095.84;5067014;28;20052;-75
2021/03/11 11:13:29;;;;;;;6.38;2.08;;;;;;;9.12;75.28;99069.00;5015524;28;20053;-76
2021/03/11 11:15:55;;;;;;;7.78;2.25;;;;;;;8.79;75.38;99073.69;5062386;28;20478;-77
2021/03/11 11:18:20;;;;;;;4.75;2.13;;;;;;;8.58;78.96;99078.56;5035589;28;20054;-78
2021/03/11 11:20:46;;;;;;;9.48;2.42;;;;;;;8.43;79.54;99098.59;5022842;28;20044;-76
2021/03/11 11:23:12;;;;;;;4.03;1.40;;;;;;;8.12;81.64;99090.75;5018123;28;20047;-79
2021/03/11 11:25:37;;;;;;;3.83;1.42;;;;;;;7.97;83.65;99093.28;5053804;28;20068;-79
2021/03/11 11:28:03;;;;;;;1.98;1.40;;;;;;;8.09;85.75;99086.69;5056641;28;20064;-79
2021/03/11 11:30:30;;;;;;;4.97;1.55;;;;;;;8.55;85.06;99073.72;5019302;28;20053;-80
2021/03/11 11:32:56;;;;;;;8.70;1.85;;;;;;;8.96;82.02;99062.91;5034956;28;20041;-77